createdAt,value
2023-02-08T00:02:11.427Z,5.57
2023-02-08T00:04:38.747Z,5.37
2023-02-08T00:07:06.158Z,5.23
2023-02-08T00:09:33.511Z,5.47
2023-02-08T00:12:01.017Z,5.30
2023-02-08T00:14:28.364Z,5.33
2023-02-08T00:16:55.698Z,5.37
2023-02-08T00:19:23.122Z,5.40
2023-02-08T00:21:50.436Z,5.23
2023-02-08T00:24:17.713Z,5.30
2023-02-08T00:26:45.028Z,5.47
2023-02-08T00:29:12.442Z,5.47
2023-02-08T00:31:40.024Z,5.63
2023-02-08T00:34:07.417Z,5.57
2023-02-08T00:36:34.783Z,5.43
2023-02-08T00:39:02.177Z,4.90
2023-02-08T00:41:29.535Z,5.60
2023-02-08T00:43:56.921Z,5.30
2023-02-08T00:46:24.327Z,5.50
2023-02-08T00:48:51.720Z,6.00
2023-02-08T00:51:19.113Z,5.90
2023-02-08T00:53:46.891Z,5.30
2023-02-08T00:56:16.032Z,5.53
2023-02-08T00:58:44.044Z,5.70
2023-02-08T01:01:12.058Z,5.30
2023-02-08T01:03:40.718Z,5.63
2023-02-08T01:06:09.251Z,5.43
2023-02-08T01:08:37.051Z,5.73
2023-02-08T01:11:06.314Z,5.40
2023-02-08T01:13:34.401Z,5.70
2023-02-08T01:16:06.480Z,6.23
2023-02-08T01:18:33.854Z,5.33
2023-02-08T01:21:05.329Z,5.80
2023-02-08T01:23:32.670Z,6.07
2023-02-08T01:26:00.032Z,5.87
2023-02-08T01:28:27.414Z,5.90
2023-02-08T01:30:54.860Z,5.97
2023-02-08T01:33:22.377Z,5.67
2023-02-08T01:35:53.860Z,5.40
2023-02-08T01:38:21.331Z,6.13
2023-02-08T01:40:48.702Z,5.47
2023-02-08T01:43:21.208Z,6.17
2023-02-08T01:45:48.702Z,5.60
2023-02-08T01:48:25.157Z,5.93
2023-02-08T01:50:59.122Z,5.53
2023-02-08T01:53:27.242Z,5.67
2023-02-08T01:55:56.626Z,5.60
2023-02-08T01:58:25.063Z,6.17
2023-02-08T02:00:52.556Z,5.50
2023-02-08T02:03:21.507Z,5.80
2023-02-08T02:05:51.556Z,6.10
2023-02-08T02:08:19.362Z,5.80
2023-02-08T02:10:49.256Z,5.97
2023-02-08T02:13:21.658Z,6.30
2023-02-08T02:15:49.464Z,6.13
2023-02-08T02:18:27.562Z,6.00
2023-02-08T02:20:57.900Z,6.50
2023-02-08T02:23:42.724Z,6.77
2023-02-08T02:26:18.800Z,6.27
2023-02-08T02:28:49.137Z,6.57
2023-02-08T02:31:32.576Z,6.60
2023-02-08T02:34:06.354Z,6.27
2023-02-08T02:36:33.716Z,6.90
2023-02-08T02:39:24.648Z,6.60
2023-02-08T02:42:22.754Z,6.37
2023-02-08T02:45:08.066Z,6.83
2023-02-08T02:47:55.922Z,6.37
2023-02-08T02:50:38.774Z,6.57
2023-02-08T02:53:25.935Z,6.30
2023-02-08T02:55:57.212Z,6.23
2023-02-08T02:58:24.729Z,6.67
2023-02-08T03:00:56.071Z,6.60
2023-02-08T03:03:24.630Z,5.80
2023-02-08T03:05:53.602Z,6.80
2023-02-08T03:08:29.713Z,6.00
2023-02-08T03:11:00.043Z,6.73
2023-02-08T03:13:43.449Z,6.40
2023-02-08T03:16:17.125Z,6.90
2023-02-08T03:18:52.171Z,6.47
2023-02-08T03:21:24.708Z,6.03
2023-02-08T03:24:01.297Z,6.33
2023-02-08T03:26:31.744Z,6.13
2023-02-08T03:29:03.121Z,6.43
2023-02-08T03:31:30.504Z,5.73
2023-02-08T03:34:01.748Z,6.83
2023-02-08T03:36:29.338Z,6.73
2023-02-08T03:38:56.990Z,6.23
2023-02-08T03:41:28.232Z,5.83
2023-02-08T03:44:04.458Z,6.83
2023-02-08T03:46:34.623Z,6.47
2023-02-08T03:49:04.660Z,7.00
2023-02-08T03:51:33.693Z,5.73
2023-02-08T03:54:03.368Z,6.63
2023-02-08T03:56:43.550Z,6.60
2023-02-08T03:59:14.629Z,6.57
2023-02-08T04:01:47.011Z,6.57
2023-02-08T04:04:15.156Z,6.33
2023-02-08T04:06:42.518Z,6.90
2023-02-08T04:09:09.823Z,6.53
2023-02-08T04:22:08.897Z,7.30
2023-02-08T04:24:36.334Z,6.73
2023-02-08T04:27:05.836Z,6.50
2023-02-08T04:29:33.602Z,6.70
2023-02-08T04:32:01.091Z,6.93
2023-02-08T04:34:28.871Z,6.53
2023-02-08T04:36:57.004Z,7.10
2023-02-08T04:39:24.502Z,6.70
2023-02-08T04:41:51.974Z,7.27
2023-02-08T04:44:19.479Z,6.97
2023-02-08T04:46:46.874Z,6.67
2023-02-08T04:49:14.495Z,7.93
2023-02-08T04:51:42.057Z,7.70
2023-02-08T04:54:09.527Z,7.20
2023-02-08T04:56:37.367Z,7.53
2023-02-08T04:59:05.770Z,7.60
2023-02-08T05:01:33.408Z,7.67
2023-02-08T05:04:00.921Z,7.97
2023-02-08T05:06:28.382Z,8.07
2023-02-08T05:08:55.837Z,7.83
2023-02-08T05:11:24.292Z,7.30
2023-02-08T05:13:51.956Z,7.90
2023-02-08T05:16:19.749Z,8.07
2023-02-08T05:18:47.214Z,8.03
2023-02-08T05:21:14.697Z,8.10
2023-02-08T05:23:42.205Z,8.37
2023-02-08T05:26:10.267Z,8.57
2023-02-08T05:28:38.149Z,7.77
2023-02-08T05:31:18.235Z,8.10
2023-02-08T05:33:45.760Z,7.43
2023-02-08T05:36:13.372Z,9.43
2023-02-08T05:38:41.027Z,8.87
2023-02-08T05:41:08.467Z,10.23
2023-02-08T05:43:36.257Z,9.20
2023-02-08T05:46:04.172Z,10.40
2023-02-08T05:48:32.242Z,9.17
2023-02-08T05:50:59.800Z,8.63
2023-02-08T05:53:27.704Z,9.57
2023-02-08T05:55:55.194Z,8.90
2023-02-08T05:58:22.685Z,8.97
2023-02-08T06:00:50.203Z,8.50
2023-02-08T06:03:19.720Z,8.93
2023-02-08T06:05:47.210Z,9.10
2023-02-08T06:08:14.679Z,8.93
2023-02-08T06:10:42.348Z,9.33
2023-02-08T06:13:09.890Z,8.90
2023-02-08T06:15:37.345Z,8.83
2023-02-08T06:18:04.867Z,9.50
2023-02-08T06:20:32.262Z,8.70
2023-02-08T06:22:59.805Z,8.47
2023-02-08T06:25:27.212Z,8.93
2023-02-08T06:27:57.253Z,8.37
2023-02-08T06:30:25.107Z,8.30
2023-02-08T06:32:52.903Z,8.37
2023-02-08T06:35:20.682Z,8.70
2023-02-08T06:37:48.191Z,9.67
2023-02-08T06:40:15.634Z,8.63
2023-02-08T06:42:43.203Z,8.93
2023-02-08T06:45:13.550Z,8.90
2023-02-08T06:47:41.182Z,8.63
2023-02-08T06:50:09.281Z,9.13
2023-02-08T06:52:36.920Z,8.50
2023-02-08T06:55:04.743Z,9.00
2023-02-08T06:57:32.181Z,8.97
2023-02-08T06:59:59.604Z,8.53
2023-02-08T07:02:27.816Z,8.67
2023-02-08T07:04:55.319Z,8.57
2023-02-08T07:07:22.820Z,8.70
2023-02-08T07:09:50.308Z,8.80
2023-02-08T07:12:17.818Z,8.47
2023-02-08T07:14:45.252Z,8.83
2023-02-08T07:17:13.122Z,8.83
2023-02-08T07:19:41.086Z,9.17
2023-02-08T07:22:08.682Z,9.40
2023-02-08T07:24:40.109Z,9.17
2023-02-08T07:27:08.587Z,9.30
2023-02-08T07:29:36.194Z,8.93
2023-02-08T07:32:04.646Z,9.10
2023-02-08T07:34:33.664Z,9.13
2023-02-08T07:37:01.275Z,9.20
2023-02-08T07:39:31.021Z,8.83
2023-02-08T07:41:58.797Z,8.50
2023-02-08T07:44:29.801Z,9.57
2023-02-08T07:46:57.278Z,9.30
2023-02-08T07:49:24.758Z,8.90
2023-02-08T07:51:52.247Z,9.47
2023-02-08T07:54:19.730Z,10.07
2023-02-08T07:56:47.201Z,10.43
2023-02-08T07:59:14.864Z,9.93
2023-02-08T08:01:42.358Z,10.03
2023-02-08T08:04:09.883Z,9.80
2023-02-08T08:06:37.374Z,10.93
2023-02-08T08:09:05.878Z,11.10
2023-02-08T08:11:33.367Z,9.90
2023-02-08T08:14:00.843Z,10.90
2023-02-08T08:16:28.343Z,11.10
2023-02-08T08:18:55.879Z,10.60
2023-02-08T08:21:23.336Z,12.90
2023-02-08T08:23:50.874Z,11.63
2023-02-08T08:26:20.131Z,11.27
2023-02-08T08:28:47.746Z,11.73
2023-02-08T08:31:16.593Z,11.37
2023-02-08T08:33:44.457Z,11.20
2023-02-08T08:36:12.067Z,11.50
2023-02-08T08:38:41.035Z,12.60
2023-02-08T08:41:17.258Z,11.53
2023-02-08T08:43:44.949Z,11.87
2023-02-08T08:46:12.467Z,12.90
2023-02-08T08:48:40.065Z,10.90
2023-02-08T08:51:08.146Z,13.20
2023-02-08T08:53:37.120Z,11.67
2023-02-08T08:56:04.884Z,11.27
2023-02-08T08:58:32.354Z,11.60
2023-02-08T09:01:00.510Z,12.73
2023-02-08T09:03:28.770Z,11.60
2023-02-08T09:05:56.704Z,10.90
2023-02-08T09:08:24.335Z,12.17
2023-02-08T09:10:51.830Z,11.77
2023-02-08T09:13:20.100Z,11.53
2023-02-08T09:15:48.243Z,12.07
2023-02-08T09:18:15.842Z,11.67
2023-02-08T09:20:43.876Z,11.77
2023-02-08T09:23:11.496Z,12.43
2023-02-08T09:25:39.035Z,11.87
2023-02-08T09:28:07.210Z,12.00
2023-02-08T09:30:34.738Z,12.37
2023-02-08T09:33:02.211Z,12.80
2023-02-08T09:35:29.845Z,12.27
2023-02-08T09:37:58.301Z,11.60
2023-02-08T09:40:27.291Z,11.73
2023-02-08T09:43:04.904Z,12.00
2023-02-08T09:46:01.899Z,10.50
2023-02-08T09:48:39.784Z,11.50
2023-02-08T09:51:23.875Z,11.50
2023-02-08T09:53:54.205Z,11.17
2023-02-08T09:56:24.994Z,11.00
2023-02-08T09:58:53.599Z,11.17
2023-02-08T10:01:23.471Z,12.53
2023-02-08T10:03:52.883Z,12.67
2023-02-08T10:06:21.277Z,12.37
2023-02-08T10:08:50.243Z,12.27
2023-02-08T10:11:38.085Z,12.90
2023-02-08T10:14:24.155Z,12.50
2023-02-08T10:17:03.614Z,12.37
2023-02-08T10:19:31.041Z,11.97
2023-02-08T10:22:18.088Z,11.87
2023-02-08T10:25:08.769Z,12.40
2023-02-08T10:27:55.136Z,11.00
2023-02-08T10:30:28.573Z,10.87
2023-02-08T10:33:00.413Z,12.93
2023-02-08T10:35:37.217Z,11.37
2023-02-08T10:38:14.038Z,12.50
2023-02-08T10:40:42.155Z,12.13
2023-02-08T10:43:12.672Z,11.30
2023-02-08T10:45:43.521Z,12.20
2023-02-08T10:48:15.788Z,11.17
2023-02-08T10:50:44.228Z,11.40
2023-02-08T10:53:15.571Z,11.80
2023-02-08T10:55:44.911Z,12.03
2023-02-08T10:58:17.871Z,12.43
2023-02-08T11:00:45.829Z,13.33
2023-02-08T11:03:18.979Z,13.10
2023-02-08T11:05:46.509Z,13.07
2023-02-08T11:08:19.601Z,11.80
2023-02-08T11:10:57.817Z,12.03
2023-02-08T11:13:25.972Z,12.53
2023-02-08T11:15:56.180Z,12.17
2023-02-08T11:18:25.982Z,12.40
2023-02-08T11:20:56.077Z,12.13
2023-02-08T11:23:31.014Z,12.00
2023-02-08T11:26:15.596Z,12.90
2023-02-08T11:28:43.519Z,11.50
2023-02-08T11:31:21.489Z,12.33
2023-02-08T11:34:09.296Z,11.80
2023-02-08T11:36:38.108Z,11.33
2023-02-08T11:39:17.234Z,11.30
2023-02-08T11:41:49.561Z,12.27
2023-02-08T11:44:37.334Z,11.43
2023-02-08T11:47:06.716Z,11.83
2023-02-08T11:49:38.702Z,10.90
2023-02-08T11:52:08.306Z,12.07
2023-02-08T11:54:41.385Z,10.93
2023-02-08T11:57:19.690Z,10.90
2023-02-08T11:59:48.146Z,11.23
2023-02-08T12:02:28.140Z,12.00
2023-02-08T12:04:55.965Z,11.47
2023-02-08T12:07:42.000Z,11.47
2023-02-08T12:10:12.676Z,10.73
2023-02-08T12:12:54.578Z,10.77
2023-02-08T12:15:22.132Z,10.63
2023-02-08T12:17:52.588Z,11.07
2023-02-08T12:20:23.473Z,10.60
2023-02-08T12:23:03.463Z,9.73
2023-02-08T12:25:40.948Z,10.00
2023-02-08T12:28:17.434Z,10.13
2023-02-08T12:30:52.419Z,10.83
2023-02-08T12:33:36.943Z,9.70
2023-02-08T12:36:05.576Z,10.80
2023-02-08T12:39:18.858Z,10.23
2023-02-08T12:42:05.386Z,9.93
2023-02-08T12:44:38.162Z,9.70
2023-02-08T12:47:14.779Z,10.27
2023-02-08T12:49:42.282Z,9.90
2023-02-08T12:52:12.812Z,10.40
2023-02-08T12:54:43.901Z,10.40
2023-02-08T12:57:15.759Z,11.40
2023-02-08T13:00:01.694Z,11.27
2023-02-08T13:02:43.434Z,11.17
2023-02-08T13:05:16.038Z,11.63
2023-02-08T13:07:44.417Z,9.30
2023-02-08T13:10:14.700Z,10.07
2023-02-08T13:12:49.434Z,10.20
2023-02-08T13:15:30.706Z,9.83
2023-02-08T13:18:00.123Z,12.60
2023-02-08T13:20:41.873Z,10.90
2023-02-08T13:23:24.428Z,9.80
2023-02-08T13:25:53.437Z,10.73
2023-02-08T13:28:22.718Z,11.03
2023-02-08T13:30:59.514Z,10.30
2023-02-08T13:33:31.132Z,9.43
2023-02-08T13:35:58.825Z,8.73
2023-02-08T13:38:29.275Z,8.90
2023-02-08T13:41:23.193Z,9.47
2023-02-08T13:43:53.237Z,8.87
2023-02-08T13:46:21.396Z,9.33
2023-02-08T13:48:50.582Z,9.23
2023-02-08T13:51:33.382Z,8.60
2023-02-08T13:54:01.057Z,8.43
2023-02-08T13:56:37.748Z,8.83
2023-02-08T13:59:06.139Z,9.30
2023-02-08T14:01:35.486Z,8.90
2023-02-08T14:04:08.939Z,8.60
2023-02-08T14:06:38.414Z,8.17
2023-02-08T14:09:22.377Z,8.27
2023-02-08T14:11:51.825Z,8.30
2023-02-08T14:14:21.602Z,8.70
2023-02-08T14:17:07.764Z,9.20
2023-02-08T14:19:36.934Z,8.87
2023-02-08T14:22:16.266Z,8.90
2023-02-08T14:24:49.662Z,8.53
2023-02-08T14:27:22.630Z,8.77
2023-02-08T14:30:16.218Z,8.80
2023-02-08T14:32:46.072Z,8.77
2023-02-08T14:35:18.255Z,9.03
2023-02-08T14:37:46.444Z,9.50
2023-02-08T14:40:25.146Z,9.50
2023-02-08T14:43:11.568Z,8.60
2023-02-08T14:45:40.091Z,9.10
2023-02-08T14:48:10.645Z,8.93
2023-02-08T14:50:40.468Z,9.03
2023-02-08T14:53:14.068Z,8.40
2023-02-08T14:55:46.329Z,8.77
2023-02-08T14:58:16.697Z,9.03
2023-02-08T15:00:45.668Z,8.60
2023-02-08T15:03:15.751Z,8.83
2023-02-08T15:05:47.331Z,8.80
2023-02-08T15:08:21.093Z,9.10
2023-02-08T15:10:48.690Z,9.30
2023-02-08T15:13:21.326Z,8.50
2023-02-08T15:15:52.005Z,9.17
2023-02-08T15:18:20.899Z,8.47
2023-02-08T15:20:57.609Z,9.00
2023-02-08T15:23:25.447Z,9.70
2023-02-08T15:26:00.643Z,8.60
2023-02-08T15:28:29.570Z,9.17
2023-02-08T15:31:01.618Z,8.90
2023-02-08T15:33:29.318Z,8.57
2023-02-08T15:36:06.411Z,9.00
2023-02-08T15:38:34.956Z,8.37
2023-02-08T15:41:02.659Z,9.43
2023-02-08T15:43:30.504Z,9.37
2023-02-08T15:46:02.684Z,9.30
2023-02-08T15:48:30.772Z,8.80
2023-02-08T15:50:58.674Z,9.43
2023-02-08T15:53:27.128Z,9.70
2023-02-08T15:55:56.918Z,9.30
2023-02-08T15:58:30.843Z,9.10
2023-02-08T16:00:59.726Z,8.57
2023-02-08T16:03:28.460Z,8.90
2023-02-08T16:05:57.645Z,9.77
2023-02-08T16:08:31.355Z,9.00
2023-02-08T16:11:21.870Z,9.37
2023-02-08T16:13:51.483Z,9.63
2023-02-08T16:16:24.105Z,9.73
2023-02-08T16:19:01.891Z,8.90
2023-02-08T16:21:29.427Z,9.83
2023-02-08T16:23:58.881Z,9.23
2023-02-08T16:26:28.822Z,9.80
2023-02-08T16:28:56.624Z,9.87
2023-02-08T16:31:28.384Z,9.87
2023-02-08T16:34:04.274Z,9.60
2023-02-08T16:36:40.691Z,9.87
2023-02-08T16:39:18.001Z,11.13
2023-02-08T16:42:06.449Z,9.93
2023-02-08T16:44:57.938Z,9.60
2023-02-08T16:47:27.395Z,8.83
2023-02-08T16:49:54.922Z,9.63
2023-02-08T16:52:22.481Z,9.63
2023-02-08T16:54:50.031Z,9.33
2023-02-08T16:57:17.449Z,10.60
2023-02-08T16:59:44.923Z,10.10
2023-02-08T17:02:13.133Z,9.57
2023-02-08T17:04:40.994Z,9.37
2023-02-08T17:07:17.367Z,10.50
2023-02-08T17:09:44.971Z,9.77
2023-02-08T17:12:21.927Z,9.00
2023-02-08T17:14:50.446Z,9.13
2023-02-08T17:17:17.995Z,9.80
2023-02-08T17:19:47.068Z,9.07
2023-02-08T17:22:14.547Z,9.53
2023-02-08T17:24:42.063Z,9.97
2023-02-08T17:27:12.584Z,10.00
2023-02-08T17:29:40.262Z,9.70
2023-02-08T17:32:07.956Z,9.53
2023-02-08T17:34:36.705Z,9.97
2023-02-08T17:37:04.244Z,9.60
2023-02-08T17:39:31.729Z,9.30
2023-02-08T17:41:59.253Z,8.93
2023-02-08T17:44:26.732Z,8.93
2023-02-08T17:46:54.223Z,9.63
2023-02-08T17:49:21.656Z,9.50
2023-02-08T17:51:49.152Z,9.80
2023-02-08T17:54:17.086Z,9.80
2023-02-08T17:56:44.610Z,9.97
2023-02-08T17:59:12.257Z,10.13
2023-02-08T18:01:39.986Z,10.33
2023-02-08T18:04:09.399Z,9.87
2023-02-08T18:06:36.914Z,9.87
2023-02-08T18:09:04.492Z,9.10
2023-02-08T18:11:31.935Z,9.23
2023-02-08T18:14:00.598Z,9.47
2023-02-08T18:16:28.700Z,10.07
2023-02-08T18:18:57.075Z,9.73
2023-02-08T18:21:25.916Z,10.33
2023-02-08T18:23:55.398Z,9.77
2023-02-08T18:26:24.094Z,9.97
2023-02-08T18:28:52.339Z,10.80
2023-02-08T18:31:20.438Z,10.57
2023-02-08T18:33:48.935Z,10.27
2023-02-08T18:36:17.077Z,9.17
2023-02-08T18:38:48.387Z,10.37
2023-02-08T18:41:21.370Z,9.27
2023-02-08T18:43:49.178Z,9.30
2023-02-08T18:46:18.485Z,9.87
2023-02-08T18:48:46.627Z,9.20
2023-02-08T18:51:16.278Z,10.27
2023-02-08T18:53:43.806Z,9.83
2023-02-08T18:56:13.193Z,11.77
2023-02-08T18:58:41.171Z,10.60
2023-02-08T19:01:11.059Z,9.80
2023-02-08T19:03:38.667Z,10.47
2023-02-08T19:06:06.927Z,11.03
2023-02-08T19:08:40.355Z,10.37
2023-02-08T19:11:15.282Z,9.80
2023-02-08T19:13:42.976Z,10.10
2023-02-08T19:16:10.501Z,9.30
2023-02-08T19:18:38.010Z,9.60
2023-02-08T19:21:09.564Z,9.47
2023-02-08T19:23:37.507Z,9.20
2023-02-08T19:26:05.939Z,10.50
2023-02-08T19:28:34.064Z,10.23
2023-02-08T19:31:10.008Z,9.97
2023-02-08T19:33:41.303Z,10.23
2023-02-08T19:36:13.506Z,9.63
2023-02-08T19:38:41.061Z,9.37
2023-02-08T19:41:10.459Z,9.37
2023-02-08T19:43:37.931Z,9.30
2023-02-08T19:46:10.071Z,9.27
2023-02-08T19:48:37.596Z,8.97
2023-02-08T19:51:05.471Z,8.73
2023-02-08T19:53:33.375Z,10.13
2023-02-08T19:56:03.059Z,8.63
2023-02-08T19:58:31.260Z,9.17
2023-02-08T20:00:59.061Z,9.30
2023-02-08T20:03:26.696Z,9.27
2023-02-08T20:05:54.684Z,9.20
2023-02-08T20:08:26.375Z,9.27
2023-02-08T20:10:55.395Z,8.40
2023-02-08T20:13:23.184Z,8.83
2023-02-08T20:15:50.946Z,8.80
2023-02-08T20:18:22.056Z,8.87
2023-02-08T20:20:59.479Z,8.87
2023-02-08T20:23:27.056Z,7.90
2023-02-08T20:26:11.709Z,7.93
2023-02-08T20:28:40.091Z,8.50
2023-02-08T20:31:11.566Z,8.20
2023-02-08T20:33:39.572Z,7.90
2023-02-08T20:36:08.213Z,7.53
2023-02-08T20:38:36.935Z,7.77
2023-02-08T20:41:08.703Z,7.50
2023-02-08T20:43:36.278Z,7.23
2023-02-08T20:46:08.272Z,7.77
2023-02-08T20:48:35.935Z,7.37
2023-02-08T20:51:10.952Z,6.73
2023-02-08T20:53:39.500Z,7.30
2023-02-08T20:56:10.887Z,6.90
2023-02-08T20:58:38.809Z,7.23
2023-02-08T21:01:10.479Z,6.97
2023-02-08T21:03:38.400Z,6.90
2023-02-08T21:06:32.220Z,6.90
2023-02-08T21:09:01.034Z,7.47
2023-02-08T21:11:30.379Z,6.93
2023-02-08T21:13:58.326Z,6.77
2023-02-08T21:16:26.532Z,6.93
2023-02-08T21:18:54.090Z,7.47
2023-02-08T21:21:21.753Z,7.30
2023-02-08T21:23:49.313Z,7.77
2023-02-08T21:26:19.568Z,7.33
2023-02-08T21:28:47.446Z,7.37
2023-02-08T21:31:18.155Z,7.00
2023-02-08T21:33:46.008Z,7.10
2023-02-08T21:36:14.632Z,6.87
2023-02-08T21:38:42.671Z,7.27
2023-02-08T21:41:11.377Z,6.90
2023-02-08T21:43:39.014Z,6.40
2023-02-08T21:46:07.341Z,6.90
2023-02-08T21:48:54.917Z,7.33
2023-02-08T21:51:42.256Z,6.10
2023-02-08T21:54:36.169Z,5.90
2023-02-08T21:57:04.365Z,6.30
2023-02-08T21:59:39.499Z,6.07
2023-02-08T22:02:22.528Z,6.37
2023-02-08T22:04:51.099Z,6.43
2023-02-08T22:07:19.423Z,5.90
2023-02-08T22:09:47.150Z,5.27
2023-02-08T22:12:15.699Z,6.10
2023-02-08T22:14:43.253Z,5.87
2023-02-08T22:17:11.409Z,5.63
2023-02-08T22:19:42.885Z,5.33
2023-02-08T22:22:11.335Z,5.70
2023-02-08T22:24:38.882Z,6.03
2023-02-08T22:27:06.545Z,5.87
2023-02-08T22:29:34.085Z,5.40
2023-02-08T22:32:01.762Z,5.60
2023-02-08T22:34:29.535Z,5.60
2023-02-08T22:36:57.035Z,5.37
2023-02-08T22:39:24.543Z,5.50
2023-02-08T22:41:52.421Z,5.53
2023-02-08T22:44:19.914Z,5.70
2023-02-08T22:46:47.372Z,6.03
2023-02-08T22:49:14.834Z,5.20
2023-02-08T22:51:42.344Z,5.37
2023-02-08T22:54:09.786Z,5.47
2023-02-08T22:56:37.297Z,5.57
2023-02-08T22:59:04.764Z,5.23
2023-02-08T23:01:32.241Z,5.07
2023-02-08T23:04:00.754Z,5.67
2023-02-08T23:06:28.407Z,5.60
2023-02-08T23:08:55.876Z,6.20
2023-02-08T23:11:23.497Z,6.07
2023-02-08T23:13:51.209Z,6.20
2023-02-08T23:16:19.691Z,5.63
2023-02-08T23:18:47.223Z,6.00
2023-02-08T23:21:18.407Z,6.00
2023-02-08T23:23:46.846Z,5.50
2023-02-08T23:26:15.894Z,5.77
2023-02-08T23:28:43.778Z,5.87
2023-02-08T23:31:12.541Z,5.77
2023-02-08T23:33:40.369Z,6.23
2023-02-08T23:36:08.507Z,5.90
2023-02-08T23:38:35.991Z,5.60
2023-02-08T23:41:04.630Z,6.00
2023-02-08T23:43:32.301Z,5.87
2023-02-08T23:45:59.781Z,5.63
2023-02-08T23:48:27.287Z,6.50
2023-02-08T23:51:01.339Z,6.27
2023-02-08T23:53:30.512Z,6.53
2023-02-08T23:56:04.077Z,5.63
2023-02-08T23:58:31.590Z,6.47
